Time;durP1;ratioP1;P1;durP2;ratioP2;P2;SDS_P1;SDS_P2;PMS_P1;PMS_P2;Temp;Humidity;BMP_temperature;BMP_pressure;BME280_temperature;BME280_humidity;BME280_pressure;Samples;Min_cycle;Max_cycle;Signal;HPM_P1;HPM_P2
2021/03/25 00:00:22;;;;;;;18.12;14.47;;;;;;;0.29;95.26;99585.41;1794082;80;21263;-79
2021/03/25 00:03:27;;;;;;;17.00;13.18;;;;;;;0.26;95.19;99566.83;1794011;78;21310;-80
2021/03/25 00:06:33;;;;;;;23.83;14.25;;;;;;;0.23;95.23;99574.64;1794010;79;21268;-79
2021/03/25 00:09:44;;;;;;;18.65;13.78;;;;;;;0.23;95.27;99563.03;1794209;80;21164;-79
2021/03/25 00:12:49;;;;;;;22.87;14.68;;;;;;;0.19;95.27;99569.68;1794027;78;21333;-80
2021/03/25 00:15:56;;;;;;;20.45;14.38;;;;;;;0.14;95.29;99568.72;1793987;80;21306;-80
2021/03/25 00:19:01;;;;;;;21.35;15.63;;;;;;;0.16;95.41;99561.86;1794076;80;21329;-80
2021/03/25 00:22:07;;;;;;;20.45;14.78;;;;;;;0.18;95.50;99556.70;1794061;78;21868;-79
2021/03/25 00:25:15;;;;;;;19.48;15.00;;;;;;;0.21;95.55;99556.94;1794066;80;21686;-79
2021/03/25 00:28:21;;;;;;;19.77;13.65;;;;;;;0.23;95.54;99552.27;1794024;78;21304;-79
2021/03/25 00:31:26;;;;;;;18.55;14.20;;;;;;;0.24;95.49;99560.23;1794052;80;21260;-81
2021/03/25 00:34:32;;;;;;;21.07;15.23;;;;;;;0.21;95.34;99553.76;1793988;80;21180;-79
2021/03/25 00:37:37;;;;;;;17.80;13.22;;;;;;;0.22;95.30;99557.30;1808506;77;21172;-79
2021/03/25 00:40:43;;;;;;;18.20;13.70;;;;;;;0.21;95.27;99552.41;1826483;78;21690;-80
2021/03/25 00:43:49;;;;;;;19.70;14.45;;;;;;;0.20;95.18;99552.55;1826451;77;21184;-81
2021/03/25 00:46:55;;;;;;;18.73;14.18;;;;;;;0.19;95.14;99547.67;1826419;77;21168;-81
2021/03/25 00:50:01;;;;;;;18.12;13.72;;;;;;;0.20;95.12;99543.14;1826377;78;21153;-81
2021/03/25 00:53:06;;;;;;;19.15;13.35;;;;;;;0.18;95.07;99536.52;1824891;77;21267;-79
2021/03/25 00:56:13;;;;;;;22.75;14.30;;;;;;;0.17;95.08;99542.05;1826457;78;21259;-78
2021/03/25 00:59:20;;;;;;;17.23;13.88;;;;;;;0.16;95.14;99546.57;1826497;78;21255;-80
2021/03/25 01:02:26;;;;;;;17.70;13.05;;;;;;;0.17;95.20;99546.92;1826431;77;21315;-80
2021/03/25 01:05:31;;;;;;;18.35;14.15;;;;;;;0.17;95.12;99544.23;1826394;78;21270;-79
2021/03/25 01:08:37;;;;;;;17.80;13.60;;;;;;;0.16;95.10;99543.03;1826454;77;21215;-81
2021/03/25 01:11:43;;;;;;;19.70;14.07;;;;;;;0.14;95.07;99551.70;1826420;77;21248;-81
2021/03/25 01:14:49;;;;;;;18.62;13.08;;;;;;;0.11;95.10;99542.56;1826470;78;21256;-80
2021/03/25 01:17:57;;;;;;;18.37;13.95;;;;;;;0.10;95.13;99541.72;1792299;80;21208;-79
2021/03/25 01:21:03;;;;;;;16.95;13.08;;;;;;;0.08;95.17;99540.97;1826466;78;21279;-79
2021/03/25 01:24:08;;;;;;;15.20;11.75;;;;;;;0.09;95.24;99538.64;1826626;78;21136;-79
2021/03/25 01:27:15;;;;;;;15.20;10.28;;;;;;;0.10;95.23;99545.75;1826424;77;21299;-80
2021/03/25 01:30:22;;;;;;;17.48;12.03;;;;;;;0.09;95.22;99545.36;1826424;78;21308;-79
2021/03/25 01:33:29;;;;;;;13.83;10.28;;;;;;;0.06;95.16;99540.27;1826307;77;21745;-81
2021/03/25 01:36:34;;;;;;;15.30;11.53;;;;;;;0.04;95.15;99544.89;1826192;77;21275;-81
2021/03/25 01:39:41;;;;;;;13.10;9.63;;;;;;;-0.03;95.16;99545.91;1826514;78;21268;-79
2021/03/25 01:42:48;;;;;;;14.80;10.23;;;;;;;-0.03;95.26;99541.88;1794030;80;21350;-79
2021/03/25 01:46:33;;;;;;;14.95;10.70;;;;;;;-0.04;95.37;99544.21;1824829;78;21191;-79
2021/03/25 01:49:38;;;;;;;13.68;9.35;;;;;;;-0.07;95.41;99549.83;1826414;78;21267;-79
2021/03/25 01:52:54;;;;;;;13.53;9.33;;;;;;;-0.06;95.64;99548.84;1793497;78;21214;-81
2021/03/25 01:56:32;;;;;;;13.88;9.18;;;;;;;-0.08;95.68;99546.78;1817973;79;21667;-81
2021/03/25 02:00:14;;;;;;;14.23;8.95;;;;;;;-0.11;95.69;99547.52;1816499;78;21702;-79
2021/03/25 02:03:36;;;;;;;14.73;10.63;;;;;;;-0.13;95.79;99545.47;1816357;77;21753;-82
2021/03/25 02:07:06;;;;;;;13.50;10.05;;;;;;;-0.14;95.90;99543.27;1818189;77;21271;-79
2021/03/25 02:10:25;;;;;;;11.93;8.48;;;;;;;-0.16;95.97;99547.05;1818095;79;21260;-79
2021/03/25 02:14:03;;;;;;;12.15;8.88;;;;;;;-0.18;96.11;99544.50;1784273;80;21223;-83
2021/03/25 02:17:38;;;;;;;13.98;10.05;;;;;;;-0.19;96.19;99544.61;1816413;78;21725;-79
2021/03/25 02:21:30;;;;;;;12.90;8.80;;;;;;;-0.22;96.38;99555.14;1782841;80;21165;-82
2021/03/25 02:24:39;;;;;;;12.13;8.63;;;;;;;-0.18;96.59;99547.69;1818111;79;21276;-80
2021/03/25 02:28:22;;;;;;;13.08;9.05;;;;;;;-0.19;96.70;99541.42;1818049;77;21300;-82
2021/03/25 02:31:35;;;;;;;13.55;8.45;;;;;;;-0.19;96.79;99544.11;1818129;79;21176;-81
2021/03/25 02:34:43;;;;;;;14.33;9.10;;;;;;;-0.22;96.87;99541.70;1805406;79;21247;-81
2021/03/25 02:37:51;;;;;;;16.73;10.10;;;;;;;-0.27;96.94;99542.57;1818104;77;21271;-82
2021/03/25 02:41:03;;;;;;;12.23;9.45;;;;;;;-0.28;97.07;99551.62;1806071;79;21794;-81
2021/03/25 02:44:20;;;;;;;12.28;8.48;;;;;;;-0.27;97.17;99554.17;1786224;80;21678;-79
2021/03/25 02:47:26;;;;;;;12.65;9.20;;;;;;;-0.26;97.20;99540.23;1818127;79;21299;-83
2021/03/25 02:50:43;;;;;;;14.80;10.45;;;;;;;-0.25;97.27;99543.28;1818204;79;21260;-79
2021/03/25 02:53:51;;;;;;;17.80;9.95;;;;;;;-0.27;97.31;99542.08;1818302;77;21271;-83
2021/03/25 02:57:06;;;;;;;14.00;9.83;;;;;;;-0.27;97.40;99552.83;1811006;79;21291;-83
2021/03/25 03:00:25;;;;;;;15.30;10.00;;;;;;;-0.28;97.41;99550.27;1810906;79;21355;-79
2021/03/25 03:03:32;;;;;;;13.78;9.50;;;;;;;-0.27;97.44;99539.39;1811023;79;21201;-79
2021/03/25 03:06:51;;;;;;;11.73;8.70;;;;;;;-0.28;97.44;99543.06;1810922;79;21319;-79
2021/03/25 03:10:01;;;;;;;12.20;9.25;;;;;;;-0.29;97.45;99541.83;1809221;78;21200;-79
2021/03/25 03:13:07;;;;;;;12.23;9.43;;;;;;;-0.31;97.48;99541.96;1811235;79;21189;-82
2021/03/25 03:16:38;;;;;;;14.15;9.18;;;;;;;-0.31;97.52;99542.45;1787269;79;21739;-79
2021/03/25 03:19:52;;;;;;;12.53;9.33;;;;;;;-0.32;97.52;99557.73;1810953;79;21295;-82
2021/03/25 03:22:59;;;;;;;13.10;9.35;;;;;;;-0.34;97.75;99540.01;1810863;79;21272;-80
2021/03/25 03:26:09;;;;;;;11.65;8.33;;;;;;;-0.35;98.06;99540.99;1811015;79;21302;-79
2021/03/25 03:29:14;;;;;;;12.63;9.15;;;;;;;-0.36;98.37;99546.86;1811053;79;21256;-83
2021/03/25 03:32:32;;;;;;;14.63;9.98;;;;;;;-0.35;98.59;99547.22;1810907;79;21287;-83
2021/03/25 03:35:49;;;;;;;11.28;8.20;;;;;;;-0.34;98.78;99557.47;1811187;79;21703;-82
2021/03/25 03:39:11;;;;;;;11.57;8.38;;;;;;;-0.33;98.97;99539.91;1810487;78;21200;-82
2021/03/25 03:42:24;;;;;;;15.55;9.25;;;;;;;-0.33;99.15;99553.34;1810440;79;21307;-80
2021/03/25 03:45:31;;;;;;;;;;;;;;;-0.32;99.29;99541.60;1813709;79;21828;-80
2021/03/25 03:49:03;;;;;;;10.48;7.85;;;;;;;-0.31;99.40;99538.42;1810965;79;20636;-82
2021/03/25 03:52:14;;;;;;;12.28;8.20;;;;;;;-0.31;99.54;99550.52;1811127;79;21850;-80
2021/03/25 03:55:22;;;;;;;12.50;8.20;;;;;;;-0.30;99.59;99551.72;1810588;79;21880;-80
2021/03/25 03:58:49;;;;;;;10.75;8.28;;;;;;;-0.26;99.66;99551.84;1810953;79;21303;-82
2021/03/25 04:02:02;;;;;;;11.03;8.33;;;;;;;-0.21;99.68;99547.92;1810790;79;21878;-79
2021/03/25 04:05:28;;;;;;;12.10;8.30;;;;;;;-0.20;99.65;99555.00;1810855;79;21153;-82
2021/03/25 04:08:51;;;;;;;14.98;9.58;;;;;;;-0.21;99.58;99547.43;1810487;79;21310;-79
2021/03/25 04:12:04;;;;;;;14.75;9.93;;;;;;;-0.20;99.60;99555.00;1805610;79;21192;-79
2021/03/25 04:15:19;;;;;;;11.13;8.13;;;;;;;-0.18;99.66;99547.69;1776382;80;21290;-80
2021/03/25 04:18:56;;;;;;;14.45;8.75;;;;;;;-0.13;99.71;99549.50;1749257;80;21284;-79
2021/03/25 04:22:10;;;;;;;16.67;8.33;;;;;;;-0.10;99.72;99542.50;1745104;82;21260;-79
2021/03/25 04:25:23;;;;;;;14.80;9.28;;;;;;;-0.08;99.68;99556.69;1748230;80;21204;-81
2021/03/25 04:28:33;;;;;;;13.32;9.70;;;;;;;-0.03;99.69;99561.19;1782339;80;21338;-83
2021/03/25 04:31:39;;;;;;;11.08;8.25;;;;;;;-0.01;99.54;99563.25;1790989;80;21190;-79
2021/03/25 04:34:44;;;;;;;12.15;8.20;;;;;;;-0.04;99.42;99564.38;1768478;80;21278;-80
2021/03/25 04:37:50;;;;;;;12.23;8.78;;;;;;;0.01;99.33;99554.59;1729344;82;21224;-82
2021/03/25 04:40:54;;;;;;;12.10;9.15;;;;;;;0.02;99.30;99564.34;1748217;82;21278;-79
2021/03/25 04:44:07;;;;;;;11.97;9.53;;;;;;;0.05;99.26;99561.88;1759726;80;21775;-81
2021/03/25 04:47:35;;;;;;;14.83;9.25;;;;;;;0.07;99.22;99560.78;1785399;80;21307;-83
2021/03/25 04:50:47;;;;;;;14.75;7.83;;;;;;;0.11;99.21;99564.93;1754771;82;21319;-82
2021/03/25 04:53:52;;;;;;;14.15;9.60;;;;;;;0.15;99.07;99569.08;1779043;80;21283;-83
2021/03/25 04:56:59;;;;;;;11.60;8.60;;;;;;;0.18;98.98;99573.33;1788129;79;21846;-79
2021/03/25 05:00:04;;;;;;;11.95;9.20;;;;;;;0.20;98.81;99582.99;1749224;81;21319;-79
2021/03/25 05:03:10;;;;;;;12.05;8.13;;;;;;;0.22;98.61;99581.02;1793963;80;21188;-83
2021/03/25 05:06:35;;;;;;;13.32;8.53;;;;;;;0.29;98.54;99585.91;1737309;81;21147;-84
2021/03/25 05:09:43;;;;;;;12.68;7.80;;;;;;;0.31;98.39;99582.58;1740309;81;21170;-83
2021/03/25 05:12:48;;;;;;;10.60;8.05;;;;;;;0.34;98.16;99587.22;1740636;82;21233;-84
2021/03/25 05:15:54;;;;;;;11.95;8.95;;;;;;;0.34;97.94;99590.41;1779054;79;21785;-84
2021/03/25 05:19:25;;;;;;;9.00;6.95;;;;;;;0.32;97.69;99592.34;1781172;80;21666;-80
2021/03/25 05:23:12;;;;;;;10.38;8.15;;;;;;;0.38;97.62;99590.51;1786662;80;21294;-80
2021/03/25 05:26:36;;;;;;;10.03;7.90;;;;;;;0.42;97.40;99591.94;1776525;80;21291;-84
2021/03/25 05:29:41;;;;;;;11.80;7.92;;;;;;;0.49;97.14;99598.02;1781068;80;21259;-83
2021/03/25 05:32:50;;;;;;;9.43;7.40;;;;;;;0.55;96.68;99595.30;1781399;80;21725;-84
2021/03/25 05:36:00;;;;;;;11.63;8.20;;;;;;;0.59;96.31;99592.72;1781527;80;21740;-81
2021/03/25 05:39:06;;;;;;;14.70;6.67;;;;;;;0.65;95.90;99598.06;1774180;80;21216;-83
2021/03/25 05:42:37;;;;;;;10.25;8.23;;;;;;;0.66;95.38;99603.34;1774917;80;21831;-81
2021/03/25 05:45:51;;;;;;;9.80;7.17;;;;;;;0.68;95.05;99596.47;1772769;80;21578;-85
2021/03/25 05:49:04;;;;;;;10.23;8.00;;;;;;;0.70;94.72;99602.06;1778493;80;21262;-80
2021/03/25 05:53:06;;;;;;;9.88;7.42;;;;;;;0.70;94.50;99606.59;1779176;80;21362;-79
2021/03/25 05:56:36;;;;;;;10.28;7.28;;;;;;;0.72;94.39;99606.84;1780612;80;21271;-86
2021/03/25 05:59:49;;;;;;;12.23;8.75;;;;;;;0.73;94.27;99611.23;1771055;80;21736;-85
2021/03/25 06:03:00;;;;;;;9.95;8.05;;;;;;;0.80;94.35;99616.97;1774483;80;21977;-82
2021/03/25 06:06:06;;;;;;;;;;;;;;;0.86;94.38;99620.47;1776819;80;21277;-82
2021/03/25 06:09:42;;;;;;;11.55;7.75;;;;;;;0.88;94.13;99619.84;1777304;80;20234;-81
2021/03/25 06:13:18;;;;;;;8.63;6.78;;;;;;;0.86;94.02;99620.47;1759056;80;21257;-79
2021/03/25 06:16:38;;;;;;;11.80;8.45;;;;;;;0.92;94.00;99622.63;1780133;80;21289;-84
2021/03/25 06:19:57;;;;;;;11.68;8.03;;;;;;;0.98;93.99;99615.86;1778960;80;21302;-85
2021/03/25 06:23:33;;;;;;;10.75;6.97;;;;;;;1.05;93.90;99626.98;1774721;80;21187;-85
2021/03/25 06:27:01;;;;;;;10.23;7.92;;;;;;;1.13;93.85;99627.14;1773856;80;21530;-80
2021/03/25 06:30:11;;;;;;;10.38;7.55;;;;;;;1.22;93.67;99622.30;1775362;80;21357;-86
2021/03/25 06:33:29;;;;;;;10.80;8.10;;;;;;;1.24;93.03;99625.23;1774341;80;21313;-85
2021/03/25 06:36:57;;;;;;;10.25;7.70;;;;;;;1.24;92.55;99621.20;1769944;80;21781;-84
2021/03/25 06:40:11;;;;;;;12.43;8.20;;;;;;;1.25;92.47;99626.94;1774019;80;21816;-85
2021/03/25 06:43:46;;;;;;;9.70;7.70;;;;;;;1.25;92.22;99629.63;1827061;77;21274;-85
2021/03/25 06:46:54;;;;;;;11.93;8.28;;;;;;;1.28;92.30;99636.61;1833172;77;21242;-87
2021/03/25 06:50:06;;;;;;;11.05;7.42;;;;;;;1.31;92.13;99623.34;1827935;77;21293;-85
2021/03/25 06:53:37;;;;;;;11.35;8.88;;;;;;;1.30;91.95;99632.42;1828390;77;21701;-85
2021/03/25 06:56:49;;;;;;;10.55;8.80;;;;;;;1.31;92.00;99630.08;1826873;77;21734;-83
2021/03/25 06:59:55;;;;;;;14.30;9.00;;;;;;;1.32;92.09;99637.17;1826236;78;21324;-81
2021/03/25 07:03:04;;;;;;;11.15;8.60;;;;;;;1.38;92.42;99637.51;1820538;77;21442;-81
2021/03/25 07:06:10;;;;;;;10.98;8.75;;;;;;;1.46;92.40;99636.35;1828844;77;21147;-82
2021/03/25 07:09:17;;;;;;;11.75;8.13;;;;;;;1.50;92.02;99649.04;1823193;77;21265;-83
2021/03/25 07:12:40;;;;;;;10.70;8.45;;;;;;;1.51;91.76;99639.99;1791140;77;21177;-82
2021/03/25 07:15:49;;;;;;;11.45;8.58;;;;;;;1.53;91.35;99644.74;1825584;77;21289;-83
2021/03/25 07:19:15;;;;;;;11.18;7.90;;;;;;;1.58;91.34;99645.19;1822380;77;21171;-84
2021/03/25 07:22:30;;;;;;;12.68;9.20;;;;;;;1.68;91.32;99647.42;1823214;77;21817;-84
2021/03/25 07:25:32;;;;;;;13.30;8.68;;;;;;;1.79;90.90;99651.89;1804296;77;21179;-82
2021/03/25 07:28:30;;;;;;;9.55;7.78;;;;;;;1.81;90.48;99647.70;1821836;77;21175;-81
2021/03/25 07:31:16;;;;;;;9.70;7.15;;;;;;;1.87;90.39;99653.88;1824939;76;21588;-80
2021/03/25 07:34:09;;;;;;;13.13;8.50;;;;;;;1.91;90.17;99654.82;1824516;76;21155;-89
2021/03/25 07:37:04;;;;;;;10.30;7.72;;;;;;;1.91;89.77;99652.63;1824641;77;21349;-84
2021/03/25 07:39:58;;;;;;;12.03;8.58;;;;;;;1.96;89.67;99648.52;1820730;77;21545;-85
2021/03/25 07:43:28;;;;;;;11.85;8.10;;;;;;;1.99;89.61;99655.50;1803456;77;21353;-86
2021/03/25 07:46:40;;;;;;;11.57;8.48;;;;;;;2.01;89.34;99657.55;1816161;77;21325;-81
2021/03/25 07:49:46;;;;;;;11.75;7.87;;;;;;;2.02;89.15;99657.89;1799964;77;21274;-82
2021/03/25 07:52:52;;;;;;;9.40;7.37;;;;;;;2.05;88.89;99665.23;1822275;77;21178;-84
2021/03/25 07:56:35;;;;;;;11.53;8.48;;;;;;;2.02;88.69;99668.69;1817742;77;21544;-85
2021/03/25 08:00:01;;;;;;;8.75;7.25;;;;;;;2.03;88.84;99667.72;1795588;77;21234;-84
2021/03/25 08:03:28;;;;;;;10.00;8.28;;;;;;;2.04;88.93;99663.52;1824020;76;21156;-86
2021/03/25 08:06:41;;;;;;;12.18;8.65;;;;;;;2.10;88.83;99665.31;1823226;77;21133;-84
2021/03/25 08:10:01;;;;;;;9.45;7.78;;;;;;;2.17;88.87;99659.23;1825481;77;21144;-84
2021/03/25 08:13:36;;;;;;;12.13;9.08;;;;;;;2.24;88.61;99671.16;1826835;77;21268;-84
2021/03/25 08:16:52;;;;;;;11.35;9.15;;;;;;;2.29;88.46;99668.90;1824073;77;21211;-83
2021/03/25 08:20:19;;;;;;;11.28;8.78;;;;;;;2.37;88.01;99671.41;1821583;77;21247;-79
2021/03/25 08:23:45;;;;;;;8.55;6.95;;;;;;;2.35;87.65;99664.78;1824322;77;21641;-81
2021/03/25 08:27:30;;;;;;;12.47;8.58;;;;;;;2.35;87.49;99667.48;1809623;77;21243;-81
2021/03/25 08:30:55;;;;;;;10.10;7.67;;;;;;;2.39;87.67;99677.02;1827068;77;21385;-83
2021/03/25 08:34:22;;;;;;;11.35;7.72;;;;;;;2.37;87.28;99670.06;1829353;77;21757;-81
2021/03/25 08:37:45;;;;;;;10.32;7.37;;;;;;;2.33;87.44;99675.38;1827949;77;21903;-81
2021/03/25 08:40:56;;;;;;;9.78;7.65;;;;;;;2.41;87.83;99679.09;1822913;77;21282;-81
2021/03/25 08:44:34;;;;;;;10.53;8.18;;;;;;;2.46;87.58;99682.73;1796574;77;21752;-81
2021/03/25 08:48:18;;;;;;;10.95;8.83;;;;;;;2.50;87.54;99682.81;1818578;77;21264;-82
2021/03/25 08:51:30;;;;;;;13.13;8.58;;;;;;;2.49;87.10;99679.73;1822943;77;21213;-82
2021/03/25 08:54:41;;;;;;;10.10;7.92;;;;;;;2.45;86.98;99682.38;1820236;77;21720;-81
2021/03/25 08:57:46;;;;;;;10.13;8.50;;;;;;;2.46;87.07;99681.37;1824052;77;21295;-80
2021/03/25 09:00:53;;;;;;;10.78;8.25;;;;;;;2.39;86.87;99683.77;1822502;77;21157;-82
2021/03/25 09:04:09;;;;;;;11.83;9.75;;;;;;;2.39;87.00;99686.96;1822158;77;21153;-81
2021/03/25 09:07:14;;;;;;;10.03;7.37;;;;;;;2.41;87.26;99689.89;1823627;77;21187;-80
2021/03/25 09:10:34;;;;;;;14.10;9.33;;;;;;;2.53;87.46;99683.86;1823124;77;21291;-80
2021/03/25 09:14:05;;;;;;;12.60;9.08;;;;;;;2.56;87.07;99682.23;1819923;77;22612;-83
2021/03/25 09:17:17;;;;;;;10.50;8.40;;;;;;;2.57;87.05;99681.23;1819424;77;21789;-82
2021/03/25 09:20:28;;;;;;;9.20;7.03;;;;;;;2.66;86.75;99691.20;1821485;77;21686;-82
2021/03/25 09:23:46;;;;;;;11.78;8.70;;;;;;;2.57;86.23;99679.89;1821397;77;21177;-81
2021/03/25 09:27:13;;;;;;;9.90;7.97;;;;;;;2.47;86.12;99688.48;1823395;77;21171;-79
2021/03/25 09:30:41;;;;;;;10.10;7.83;;;;;;;2.47;86.69;99691.17;1821495;77;21422;-81
2021/03/25 09:33:56;;;;;;;10.63;7.28;;;;;;;2.56;86.88;99702.48;1822150;77;21294;-80
2021/03/25 09:37:14;;;;;;;10.63;8.15;;;;;;;2.55;86.45;99695.39;1822098;77;21211;-83
2021/03/25 09:40:42;;;;;;;11.20;7.67;;;;;;;2.54;86.74;99704.45;1821225;77;21185;-79
2021/03/25 09:43:48;;;;;;;12.70;9.45;;;;;;;2.60;86.84;99699.02;1820584;77;21387;-79
2021/03/25 09:47:11;;;;;;;8.30;6.75;;;;;;;2.62;86.79;99701.92;1825303;77;21318;-79
2021/03/25 09:50:28;;;;;;;9.15;7.17;;;;;;;2.63;86.60;99704.97;1824345;77;21759;-78
2021/03/25 09:53:37;;;;;;;8.55;6.87;;;;;;;2.62;86.36;99712.72;1822598;77;21298;-78
2021/03/25 09:56:43;;;;;;;8.28;7.08;;;;;;;2.62;86.51;99718.62;1823729;77;21269;-80
2021/03/25 10:00:08;;;;;;;11.30;7.60;;;;;;;2.63;86.74;99715.77;1822763;77;21283;-79
2021/03/25 10:03:18;;;;;;;9.70;7.97;;;;;;;2.68;86.54;99713.53;1817968;77;21297;-79
2021/03/25 10:06:58;;;;;;;9.55;8.00;;;;;;;2.68;86.41;99704.55;1818513;77;21909;-80
2021/03/25 10:10:07;;;;;;;8.45;6.87;;;;;;;2.65;86.17;99707.05;1819058;77;21160;-78
2021/03/25 10:13:21;;;;;;;10.80;7.75;;;;;;;2.64;86.28;99713.45;1818027;77;21184;-77
2021/03/25 10:16:55;;;;;;;9.28;7.40;;;;;;;2.68;86.42;99712.18;1822118;77;22223;-78
2021/03/25 10:20:02;;;;;;;9.73;8.13;;;;;;;2.73;86.33;99709.91;1822918;77;21337;-79
2021/03/25 10:23:06;;;;;;;9.30;7.05;;;;;;;2.72;86.23;99716.28;1821983;77;21285;-79
2021/03/25 10:26:17;;;;;;;9.98;7.67;;;;;;;2.76;86.26;99724.45;1819599;77;21320;-78
2021/03/25 10:29:25;;;;;;;;;;;;;;;2.70;86.01;99717.42;1820668;77;21933;-78
2021/03/25 10:32:39;;;;;;;8.30;6.25;;;;;;;2.67;86.26;99721.25;1781598;78;20495;-79
2021/03/25 10:36:07;;;;;;;9.48;7.40;;;;;;;2.70;86.59;99716.92;1760764;80;21215;-79
2021/03/25 10:39:14;;;;;;;9.33;7.17;;;;;;;2.72;86.58;99724.88;1754667;80;21307;-80
2021/03/25 10:42:41;;;;;;;9.23;7.17;;;;;;;2.80;86.78;99723.19;1764512;79;21298;-79
2021/03/25 10:45:59;;;;;;;11.30;8.38;;;;;;;2.75;86.10;99723.27;1760289;79;21811;-77
2021/03/25 10:49:18;;;;;;;8.40;6.85;;;;;;;2.67;86.35;99725.80;1759722;79;21176;-79
2021/03/25 10:52:46;;;;;;;9.68;7.62;;;;;;;2.66;86.46;99730.34;1762880;79;21589;-79
2021/03/25 10:55:55;;;;;;;9.90;8.50;;;;;;;2.60;86.58;99734.97;1763990;79;21223;-79
2021/03/25 10:59:26;;;;;;;10.03;7.40;;;;;;;2.55;86.71;99734.04;1763971;79;21891;-79
2021/03/25 11:02:44;;;;;;;10.78;8.55;;;;;;;2.52;86.84;99734.30;1743683;79;21271;-78
2021/03/25 11:06:01;;;;;;;11.95;8.05;;;;;;;2.41;87.13;99742.53;1766451;79;21338;-79
2021/03/25 11:09:34;;;;;;;13.00;8.58;;;;;;;2.33;87.34;99741.50;1765647;79;21161;-80
2021/03/25 11:12:39;;;;;;;11.50;9.55;;;;;;;2.24;87.62;99741.33;1748118;80;21651;-78
2021/03/25 11:15:52;;;;;;;10.40;8.58;;;;;;;2.25;88.27;99738.12;1761996;79;21473;-79
2021/03/25 11:19:09;;;;;;;10.60;8.50;;;;;;;2.30;88.70;99743.97;1764229;79;21167;-79
2021/03/25 11:22:20;;;;;;;9.58;7.78;;;;;;;2.34;88.76;99736.45;1765309;80;21920;-78
2021/03/25 11:25:36;;;;;;;11.12;8.00;;;;;;;2.41;88.74;99741.67;1765409;79;21226;-78
2021/03/25 11:28:45;;;;;;;10.03;8.48;;;;;;;2.42;88.58;99746.08;1765036;79;21188;-79
2021/03/25 11:35:28;;;;;;;10.00;8.00;;;;;;;2.54;88.52;99743.60;1763353;79;21503;-79
2021/03/25 11:38:40;;;;;;;12.73;9.48;;;;;;;2.52;88.10;99748.30;1764768;80;21871;-81
2021/03/25 11:41:46;;;;;;;10.05;8.05;;;;;;;2.52;88.15;99744.25;1768780;79;21314;-80
2021/03/25 11:44:56;;;;;;;9.95;7.80;;;;;;;2.52;88.11;99744.25;1765082;79;21334;-81
2021/03/25 11:48:00;;;;;;;;;;;;;;;2.46;87.93;99740.27;1770063;79;21298;-80
2021/03/25 11:51:29;;;;;;;10.85;8.15;;;;;;;2.44;88.29;99745.43;1767505;79;20318;-80
2021/03/25 11:54:46;;;;;;;7.93;6.70;;;;;;;2.49;88.61;99744.52;1767564;79;21802;-80
2021/03/25 11:57:51;;;;;;;13.55;8.33;;;;;;;2.54;88.65;99748.53;1768484;79;21244;-81
2021/03/25 12:01:31;;;;;;;11.03;8.93;;;;;;;2.58;88.46;99745.53;1771040;79;21809;-80
2021/03/25 12:04:37;;;;;;;10.95;8.08;;;;;;;2.59;88.26;99754.87;1765342;79;21321;-81
2021/03/25 12:07:42;;;;;;;12.07;9.45;;;;;;;2.58;87.99;99755.84;1781051;78;21302;-79
2021/03/25 12:10:49;;;;;;;10.23;7.37;;;;;;;2.52;87.75;99755.91;1768876;80;21776;-81
2021/03/25 12:13:56;;;;;;;10.50;7.67;;;;;;;2.48;87.68;99760.36;1768536;80;21169;-81
2021/03/25 12:17:06;;;;;;;10.32;7.90;;;;;;;2.41;87.89;99764.13;1767091;80;21184;-80
2021/03/25 12:20:17;;;;;;;10.15;7.83;;;;;;;2.38;88.09;99767.58;1768515;80;21286;-80
2021/03/25 12:23:27;;;;;;;9.65;7.55;;;;;;;2.34;88.06;99774.24;1769421;80;21192;-80
2021/03/25 12:26:33;;;;;;;10.82;8.35;;;;;;;2.29;88.34;99769.26;1768149;80;21331;-79
2021/03/25 12:29:39;;;;;;;10.95;8.95;;;;;;;2.27;88.61;99764.00;1765097;80;22309;-80
2021/03/25 12:32:45;;;;;;;9.75;7.37;;;;;;;2.30;88.81;99766.91;1769672;79;21287;-79
2021/03/25 12:35:58;;;;;;;10.85;8.80;;;;;;;2.34;88.84;99766.15;1771506;80;22068;-79
2021/03/25 12:39:04;;;;;;;14.87;9.98;;;;;;;2.35;88.73;99774.09;1768459;80;21195;-81
2021/03/25 12:42:14;;;;;;;11.05;8.38;;;;;;;2.30;88.51;99774.51;1768095;80;21281;-84
2021/03/25 12:45:47;;;;;;;10.05;7.87;;;;;;;2.22;88.39;99779.75;1767269;80;21334;-81
2021/03/25 12:48:52;;;;;;;11.18;7.92;;;;;;;2.18;88.63;99780.16;1767507;80;21298;-82
2021/03/25 12:51:58;;;;;;;14.40;10.10;;;;;;;2.07;88.82;99778.88;1767068;80;21423;-81
2021/03/25 12:55:04;;;;;;;13.60;9.38;;;;;;;2.00;89.17;99782.63;1784482;78;21136;-81
2021/03/25 12:58:10;;;;;;;13.28;9.13;;;;;;;2.03;89.67;99790.47;1782895;78;21322;-82
2021/03/25 13:01:24;;;;;;;14.93;10.88;;;;;;;2.03;89.85;99785.92;1780153;78;21176;-81
2021/03/25 13:04:31;;;;;;;11.28;8.63;;;;;;;2.02;89.91;99790.08;1785207;78;21297;-82
2021/03/25 13:07:41;;;;;;;10.90;8.75;;;;;;;2.04;90.01;99789.47;1787830;78;21289;-81
2021/03/25 13:10:48;;;;;;;9.78;7.20;;;;;;;2.04;90.04;99800.26;1778690;78;21617;-81
2021/03/25 13:13:53;;;;;;;15.28;9.13;;;;;;;2.07;90.19;99801.81;1781003;78;21379;-81
2021/03/25 13:16:58;;;;;;;15.10;9.20;;;;;;;2.10;90.21;99806.45;1785957;78;21287;-81
2021/03/25 13:20:05;;;;;;;12.33;8.85;;;;;;;2.15;90.21;99808.75;1734458;80;21725;-81
2021/03/25 13:23:12;;;;;;;15.45;11.05;;;;;;;2.14;89.98;99809.25;1783335;78;21151;-80
2021/03/25 13:26:18;;;;;;;12.60;8.80;;;;;;;2.10;89.87;99810.50;1785242;78;21830;-80
2021/03/25 13:29:25;;;;;;;13.32;9.80;;;;;;;2.10;89.90;99817.25;1786381;78;21283;-81
2021/03/25 13:32:30;;;;;;;13.15;10.13;;;;;;;2.07;89.94;99818.89;1790341;78;21239;-79
2021/03/25 13:35:37;;;;;;;13.80;9.20;;;;;;;2.08;90.04;99815.19;1789436;78;21304;-79
2021/03/25 13:38:42;;;;;;;12.93;9.80;;;;;;;2.07;90.05;99814.84;1785396;78;21167;-80
2021/03/25 13:41:49;;;;;;;16.65;10.90;;;;;;;2.02;89.98;99817.05;1770992;80;21851;-80
2021/03/25 13:44:54;;;;;;;13.18;9.58;;;;;;;1.96;89.77;99822.99;1772520;80;21274;-80
2021/03/25 13:47:59;;;;;;;16.95;11.40;;;;;;;1.92;90.07;99821.55;1766438;80;21322;-79
2021/03/25 13:51:08;;;;;;;15.93;10.82;;;;;;;1.89;90.30;99829.92;1772208;79;21279;-79
2021/03/25 13:54:13;;;;;;;13.25;10.18;;;;;;;1.87;90.36;99829.19;1768765;80;21176;-79
2021/03/25 13:57:19;;;;;;;13.65;10.15;;;;;;;1.85;90.51;99829.83;1771797;79;21175;-79
2021/03/25 14:00:26;;;;;;;17.75;11.35;;;;;;;1.82;90.69;99826.03;1771699;80;21274;-79
2021/03/25 14:03:31;;;;;;;13.72;10.23;;;;;;;1.77;90.83;99828.63;1770353;80;21322;-79
2021/03/25 14:06:36;;;;;;;14.07;10.05;;;;;;;1.76;91.01;99838.20;1764954;80;21973;-79
2021/03/25 14:09:43;;;;;;;18.70;11.85;;;;;;;1.70;91.04;99836.05;1766800;80;21152;-79
2021/03/25 14:12:49;;;;;;;16.32;11.20;;;;;;;1.69;91.30;99837.86;1772764;80;21929;-79
2021/03/25 14:15:55;;;;;;;19.02;12.90;;;;;;;1.71;91.46;99839.95;1775291;80;21974;-80
2021/03/25 14:19:00;;;;;;;16.32;12.00;;;;;;;1.72;91.57;99840.80;1768626;80;21171;-80
2021/03/25 14:22:09;;;;;;;17.32;12.00;;;;;;;1.73;91.61;99847.40;1769287;80;21598;-80
2021/03/25 14:25:16;;;;;;;16.93;12.00;;;;;;;1.72;91.69;99851.09;1769850;80;21640;-80
2021/03/25 14:28:24;;;;;;;15.50;11.60;;;;;;;1.74;91.73;99852.30;1786926;78;21722;-79
2021/03/25 14:31:30;;;;;;;18.77;11.50;;;;;;;1.75;91.81;99853.53;1784165;79;21127;-80
2021/03/25 14:34:34;;;;;;;14.23;11.00;;;;;;;1.73;91.82;99858.68;1749623;81;21294;-79
2021/03/25 14:37:41;;;;;;;17.80;11.38;;;;;;;1.70;91.82;99858.47;1778511;78;21143;-79
2021/03/25 14:40:47;;;;;;;21.97;12.50;;;;;;;1.69;91.82;99860.77;1783947;79;21736;-79
2021/03/25 14:43:52;;;;;;;18.02;13.30;;;;;;;1.68;91.87;99863.12;1781155;79;21162;-80
2021/03/25 14:46:58;;;;;;;17.40;11.88;;;;;;;1.67;91.97;99867.30;1770456;80;21346;-79
2021/03/25 14:50:03;;;;;;;16.52;11.48;;;;;;;1.64;91.97;99871.09;1765909;80;21279;-79
2021/03/25 14:53:13;;;;;;;14.58;11.10;;;;;;;1.60;92.03;99867.44;1743349;80;21766;-79
2021/03/25 14:56:18;;;;;;;18.00;12.47;;;;;;;1.56;92.15;99874.96;1758881;81;21287;-79
2021/03/25 14:59:24;;;;;;;17.12;12.55;;;;;;;1.59;92.30;99880.56;1759184;81;21164;-79
2021/03/25 15:02:30;;;;;;;17.27;11.65;;;;;;;1.59;92.37;99874.68;1759145;81;21331;-79
2021/03/25 15:05:35;;;;;;;15.75;11.12;;;;;;;1.58;92.40;99886.45;1758923;81;21782;-79
2021/03/25 15:08:42;;;;;;;20.35;13.53;;;;;;;1.60;92.53;99880.46;1760471;81;21200;-79
2021/03/25 15:11:48;;;;;;;15.38;11.60;;;;;;;1.61;92.52;99886.20;1759041;81;21731;-79